Main page
METAR-TAF:

METAR-TAF

Airports :

Lakselv Airport. Banak

Lakselv, Norway

latitude: 70-04N, longitude: 024-59E, elevation: 0 m

Current weather observation

The report was made 30 minutes ago, at 17:20 UTC
Wind 10 kt from the South
Temperature 29°C
Humidity 35%
Pressure 1011 hPa
Visibility 10 km or more
no clouds below 1500 m and no cumulonimbus

METAR: ENNA 231720Z 17010KT CAVOK 29/12 Q1011 RMK WIND 1800FT 19012KT

Time: 19:50 (17:50 UTC)

Forecast

The report was made 6 hours and 50 minutes ago, at 11:00 UTC
Forecast valid from 23 at 12 UTC to 24 at 12 UTC
Wind 15 kt from the South
Visibility 10 km or more
Few clouds at a height of 5000 ft
Temporary
from 23 at 18 UTC to 24 at 08 UTC
Wind 5 kt from the South
Becoming
from 24 at 08 UTC to 24 at 11 UTC
Wind 12 kt from the North/Northeast

TAF: ENNA 231100Z 2312/2412 18015KT 9999 FEW050 TEMPO 2318/2408 18005KT BECMG 2408/2411 02012KT

Weather observations and forecasts of more than 4000 airports (METAR and TAF reports).

The available stations are represented by yellow and red dots on the map.

Hover mouse over dot to see the name of the station.

Then click to see weather observations and forecasts.

To change the map : click on the green buttons with a black cross to zoom in, on the green button with a dash to zoom out, or on the green arrows for adjacent maps.


METAR-TAF: